Pagrindinis puslapis
METAR-TAF:

METAR-TAF

Oro uostai :

San Žozė do Rio Pretas, San Paulas, Brazilija

platuma: 20-48-58S, ilguma: 049-24-17W, Aukštis: 543 m

Dabartinis oras

Ataskaita buvo paskelbta 1 valandą ir 6 minutes, ne 21:00 UTC
Vėjas 4 kt iš Rytų
Temperatūra 35°C
Drėgmė 18%
Slėgis 1014 hPa
Matomumas 10 km arba daugiau
nėra debesų žemiau 1500 m ir nėra kamuolinių lietaus debesų

METAR: SBSR 162100Z 08004KT CAVOK 35/07 Q1014

Laikas: 19:06 (22:06 UTC)


TAF: trūkstamas

Orai ataskaitas ir orų prognozės (METAR, TAF).

turimą stotys yra geltonos ir raudonos taškus žemėlapyje.

Perkelti pele per norėdami pamatyti stoties vardą.

Tada spustelėkite, norėdami matyti oro stebėjimo ir prognozės.

Norėdami pakeisti žemėlapį: spustelėkite ant žalios mygtukų su juodo kryžiaus žemyn,; žalią mygtuką su brūkšneliu, jei norite nutolinti; arba žalių rodyklių gretimoms žemėlapius.


METAR-TAF: